Time;durP1;ratioP1;P1;durP2;ratioP2;P2;SDS_P1;SDS_P2;PMS_P1;PMS_P2;Temp;Humidity;BMP_temperature;BMP_pressure;BME280_temperature;BME280_humidity;BME280_pressure;Samples;Min_cycle;Max_cycle;Signal;HPM_P1;HPM_P2
2022/11/17 00:01:06;;;;;;;24.50;15.60;;;8.30;99.90;;;;;;5109144;28;20051;-79
2022/11/17 00:03:32;;;;;;;26.27;15.50;;;8.30;99.90;;;;;;5109023;28;20052;-79
2022/11/17 00:06:02;;;;;;;24.88;15.70;;;8.60;99.90;;;;;;5108969;28;20051;-80
2022/11/17 00:08:28;;;;;;;25.77;16.30;;;8.30;99.90;;;;;;5110016;28;20828;-79
2022/11/17 00:10:53;;;;;;;25.55;15.80;;;8.40;99.90;;;;;;5091330;28;20078;-79
2022/11/17 00:16:03;;;;;;;25.08;15.60;;;8.40;99.90;;;;;;5109206;28;20401;-79
2022/11/17 00:21:20;;;;;;;22.27;15.85;;;8.40;99.90;;;;;;5109146;28;20051;-79
2022/11/17 00:23:45;;;;;;;24.25;15.85;;;8.40;99.90;;;;;;5108768;28;20039;-79
2022/11/17 00:26:20;;;;;;;20.95;14.77;;;8.40;99.90;;;;;;5107913;28;20071;-79
2022/11/17 00:28:46;;;;;;;21.45;15.10;;;8.60;99.90;;;;;;5108248;28;20054;-79
2022/11/17 00:34:03;;;;;;;20.70;13.57;;;8.40;99.90;;;;;;5107986;28;20070;-79
2022/11/17 00:36:30;;;;;;;20.73;14.88;;;8.40;99.90;;;;;;5109439;28;20043;-78
2022/11/17 00:38:56;;;;;;;22.85;14.85;;;8.40;99.90;;;;;;5091544;28;20786;-79
2022/11/17 00:41:21;;;;;;;21.85;15.27;;;8.40;99.90;;;;;;5108178;28;20104;-79
2022/11/17 00:43:47;;;;;;;21.08;14.88;;;8.40;99.90;;;;;;5090734;28;20044;-79
2022/11/17 00:46:12;;;;;;;21.52;14.48;;;8.50;99.90;;;;;;5089619;28;20059;-78
2022/11/17 00:48:38;;;;;;;20.50;14.50;;;8.50;99.90;;;;;;5108498;28;20050;-79
2022/11/17 00:51:04;;;;;;;20.83;15.00;;;8.50;99.90;;;;;;5107285;28;20051;-79
2022/11/17 00:53:30;;;;;;;18.08;13.90;;;8.50;99.90;;;;;;5108989;27;20047;-79
2022/11/17 00:55:55;;;;;;;19.17;14.65;;;8.40;99.90;;;;;;5107732;28;20040;-78
2022/11/17 00:58:21;;;;;;;20.98;14.20;;;8.50;99.90;;;;;;5091598;28;20047;-79
2022/11/17 01:00:49;;;;;;;18.98;13.50;;;8.50;99.90;;;;;;5107532;28;20070;-78
2022/11/17 01:03:15;;;;;;;18.20;13.93;;;8.50;99.90;;;;;;5087982;28;20633;-78
2022/11/17 01:05:40;;;;;;;18.23;13.18;;;8.50;99.90;;;;;;5070791;28;20083;-79
2022/11/17 01:08:06;;;;;;;19.33;13.57;;;8.50;99.90;;;;;;5087780;28;20063;-79
2022/11/17 01:10:34;;;;;;;18.02;13.10;;;8.50;99.90;;;;;;5087736;28;20052;-79
2022/11/17 01:13:00;;;;;;;16.80;13.23;;;8.50;99.90;;;;;;5086953;28;20127;-78
2022/11/17 01:15:25;;;;;;;17.48;13.80;;;8.50;99.90;;;;;;5097243;28;20160;-79
2022/11/17 01:17:51;;;;;;;21.00;13.30;;;8.50;99.90;;;;;;5104693;28;20047;-79
2022/11/17 01:20:16;;;;;;;16.95;12.57;;;8.50;99.90;;;;;;5109001;28;20047;-78
2022/11/17 01:22:42;;;;;;;15.55;13.00;;;8.50;99.90;;;;;;5106598;28;20043;-78
2022/11/17 01:25:08;;;;;;;17.95;12.10;;;8.50;99.90;;;;;;5108815;28;20059;-78
2022/11/17 01:27:33;;;;;;;17.65;12.98;;;8.50;99.90;;;;;;5106178;28;20047;-78
2022/11/17 01:29:59;;;;;;;17.55;12.98;;;8.50;99.90;;;;;;5106287;28;20080;-78
2022/11/17 01:32:24;;;;;;;19.30;12.48;;;8.50;99.90;;;;;;5108820;28;20126;-78
2022/11/17 01:34:50;;;;;;;17.38;12.70;;;8.50;99.90;;;;;;5105462;28;20040;-78
2022/11/17 01:37:18;;;;;;;16.65;12.27;;;8.40;99.90;;;;;;5107398;28;20039;-79
2022/11/17 01:39:44;;;;;;;14.63;12.25;;;8.50;99.90;;;;;;5105250;28;20044;-79
2022/11/17 01:42:19;;;;;;;17.45;12.38;;;8.40;99.90;;;;;;5106544;28;20051;-78
2022/11/17 01:45:13;;;;;;;14.02;12.32;;;8.50;99.90;;;;;;5108645;28;20571;-79
2022/11/17 01:47:42;;;;;;;16.48;11.90;;;8.50;99.90;;;;;;5108004;28;20043;-79
2022/11/17 01:50:30;;;;;;;16.48;11.88;;;8.50;99.90;;;;;;5090463;28;20055;-79
2022/11/17 01:52:59;;;;;;;17.42;12.15;;;8.50;99.90;;;;;;5107369;28;20453;-79
2022/11/17 01:55:32;;;;;;;16.42;12.18;;;8.50;99.90;;;;;;5106994;28;20391;-79
2022/11/17 01:58:07;;;;;;;14.93;11.52;;;8.50;99.90;;;;;;5106429;28;20054;-78
2022/11/17 02:00:33;;;;;;;18.05;11.90;;;8.50;99.90;;;;;;5106799;28;20044;-79
2022/11/17 02:02:59;;;;;;;15.77;11.27;;;8.50;99.90;;;;;;5106604;28;20051;-78
2022/11/17 02:05:35;;;;;;;16.20;12.15;;;8.50;99.90;;;;;;5090229;28;20085;-78
2022/11/17 02:08:05;;;;;;;16.35;11.55;;;8.50;99.90;;;;;;5106348;28;20066;-78
2022/11/17 02:10:31;;;;;;;14.77;11.70;;;8.50;99.90;;;;;;5107119;28;20512;-78
2022/11/17 02:12:58;;;;;;;15.15;11.05;;;8.50;99.90;;;;;;5106791;28;20043;-79
2022/11/17 02:15:25;;;;;;;16.77;11.95;;;8.50;99.90;;;;;;5106892;28;20052;-78
2022/11/17 02:17:51;;;;;;;14.32;12.32;;;8.50;99.90;;;;;;5106939;28;20055;-77
2022/11/17 02:20:20;;;;;;;17.63;11.98;;;8.50;99.90;;;;;;5107072;28;20388;-79
2022/11/17 02:23:08;;;;;;;13.93;11.38;;;8.50;99.90;;;;;;5106563;28;20057;-79
2022/11/17 02:25:56;;;;;;;18.58;13.07;;;8.50;99.90;;;;;;5106714;28;20161;-78
2022/11/17 02:28:34;;;;;;;16.00;11.57;;;8.40;99.90;;;;;;5108273;28;20051;-80
2022/11/17 02:31:18;;;;;;;15.43;11.90;;;8.40;99.90;;;;;;5089609;28;20050;-80
2022/11/17 02:33:50;;;;;;;14.95;11.60;;;8.40;99.90;;;;;;5106940;28;20043;-80
2022/11/17 02:55:36;;;;;;;17.85;12.38;;;8.60;99.90;;;;;;4917763;29;20130;-83
2022/11/17 02:59:29;;;;;;;;;;;;;;;;;;;;;
2022/11/17 03:02:35;;;;;;;18.90;12.48;;;7.90;99.90;;;;;;4817448;29;20192;-80
2022/11/17 03:05:28;;;;;;;17.10;12.65;;;8.10;99.90;;;;;;4870330;29;20068;-77
2022/11/17 03:08:37;;;;;;;16.80;11.63;;;8.10;99.90;;;;;;5040287;28;20094;-77
2022/11/17 03:11:10;;;;;;;16.77;12.50;;;7.80;99.90;;;;;;5085746;28;20123;-78
2022/11/17 03:13:55;;;;;;;21.13;13.18;;;8.00;99.90;;;;;;5086085;28;20047;-77
2022/11/17 03:16:47;;;;;;;16.33;11.93;;;8.00;99.90;;;;;;5095820;28;20078;-78
2022/11/17 03:19:31;;;;;;;18.38;12.93;;;8.00;99.90;;;;;;5093034;28;20089;-78
2022/11/17 03:22:24;;;;;;;18.42;12.27;;;8.00;99.90;;;;;;5110277;28;20048;-77
2022/11/17 03:24:54;;;;;;;17.30;12.73;;;8.00;99.90;;;;;;5093965;28;20051;-78
2022/11/17 03:27:30;;;;;;;16.77;11.55;;;8.00;99.90;;;;;;5109217;28;20043;-79
2022/11/17 03:30:00;;;;;;;17.85;11.93;;;8.00;99.90;;;;;;5109459;28;20076;-78
2022/11/17 03:32:30;;;;;;;18.70;12.77;;;8.00;99.90;;;;;;5109341;28;20846;-78
2022/11/17 03:35:00;;;;;;;17.58;12.68;;;7.90;99.90;;;;;;5083060;28;20049;-79
2022/11/17 03:37:29;;;;;;;19.85;13.13;;;7.90;99.90;;;;;;5090348;28;20717;-79
2022/11/17 03:40:02;;;;;;;16.10;11.73;;;7.90;99.90;;;;;;5089360;28;20048;-78
2022/11/17 03:42:32;;;;;;;19.90;11.63;;;7.80;99.90;;;;;;5096088;28;20040;-79
2022/11/17 03:45:05;;;;;;;16.10;11.38;;;7.90;99.90;;;;;;5096760;28;20122;-78
2022/11/17 03:47:32;;;;;;;19.00;11.73;;;7.80;99.90;;;;;;5088457;28;20051;-79
2022/11/17 03:50:07;;;;;;;16.65;11.63;;;7.80;99.90;;;;;;5090867;28;20485;-79
2022/11/17 03:52:33;;;;;;;18.63;12.18;;;7.80;99.90;;;;;;5110296;28;20051;-78
2022/11/17 03:55:00;;;;;;;14.18;10.60;;;7.80;99.90;;;;;;5110249;28;20044;-79
2022/11/17 03:57:45;;;;;;;14.45;10.48;;;7.80;99.90;;;;;;5108993;28;20050;-78
2022/11/17 04:00:13;;;;;;;17.73;11.68;;;7.90;99.90;;;;;;5125507;27;20088;-78
2022/11/17 04:02:54;;;;;;;14.93;11.32;;;7.80;99.90;;;;;;5108617;28;20048;-78
2022/11/17 04:05:20;;;;;;;14.20;10.18;;;7.80;99.90;;;;;;5108911;28;20061;-78
2022/11/17 04:07:47;;;;;;;17.33;10.48;;;7.80;99.90;;;;;;5109983;28;20068;-78
2022/11/17 04:10:18;;;;;;;14.73;10.60;;;7.80;99.90;;;;;;5110044;28;20054;-79
2022/11/17 04:18:14;;;;;;;14.85;10.00;;;7.80;99.90;;;;;;5108908;28;20051;-79
2022/11/17 04:20:39;;;;;;;14.52;10.27;;;7.80;99.90;;;;;;5108458;28;20159;-79
2022/11/17 04:23:08;;;;;;;14.63;10.23;;;7.80;99.90;;;;;;5108929;28;20159;-78
2022/11/17 04:28:36;;;;;;;12.68;9.70;;;7.70;99.90;;;;;;5110262;28;20814;-78
2022/11/17 04:31:12;;;;;;;14.23;9.90;;;7.70;99.90;;;;;;5108280;28;20051;-78
2022/11/17 04:33:46;;;;;;;12.27;9.90;;;7.70;99.90;;;;;;5072282;28;20127;-78
2022/11/17 04:36:14;;;;;;;11.77;9.70;;;7.80;99.90;;;;;;5087933;28;20120;-78
2022/11/17 04:38:44;;;;;;;12.13;8.88;;;7.70;99.90;;;;;;5094161;28;20055;-78
2022/11/17 04:43:57;;;;;;;12.18;9.40;;;7.70;99.90;;;;;;5109636;28;20059;-79
2022/11/17 04:46:24;;;;;;;11.95;8.73;;;7.70;99.90;;;;;;5125488;27;20077;-78
2022/11/17 04:48:54;;;;;;;11.73;9.38;;;7.70;99.90;;;;;;5108425;28;20051;-78
2022/11/17 04:51:20;;;;;;;11.48;9.00;;;7.70;99.90;;;;;;5125326;27;20048;-78
2022/11/17 04:53:46;;;;;;;10.73;9.15;;;7.70;99.90;;;;;;5090643;28;20088;-78
2022/11/17 04:56:12;;;;;;;11.77;9.70;;;7.70;99.90;;;;;;5106273;28;20181;-78
2022/11/17 04:58:39;;;;;;;11.00;8.43;;;7.70;99.90;;;;;;5108396;27;20548;-78
2022/11/17 05:01:11;;;;;;;10.02;8.80;;;7.70;99.90;;;;;;5094213;28;20075;-78
2022/11/17 05:03:44;;;;;;;11.05;8.93;;;7.50;99.90;;;;;;5106389;28;20047;-78
2022/11/17 05:06:11;;;;;;;9.52;8.50;;;7.70;99.90;;;;;;5106540;28;20074;-78
2022/11/17 05:08:38;;;;;;;12.02;9.13;;;7.70;99.90;;;;;;5107830;28;20063;-78
2022/11/17 05:13:50;;;;;;;10.18;8.23;;;7.40;99.90;;;;;;5107797;28;20062;-78
2022/11/17 05:19:01;;;;;;;12.45;8.52;;;7.60;99.90;;;;;;5109012;28;20083;-79
2022/11/17 05:21:26;;;;;;;9.68;7.75;;;7.60;99.90;;;;;;5106978;28;20556;-79
2022/11/17 05:23:54;;;;;;;10.88;8.32;;;7.50;99.90;;;;;;5106647;28;20066;-78
2022/11/17 05:26:21;;;;;;;8.65;7.50;;;7.60;99.90;;;;;;5106415;28;20158;-78
2022/11/17 05:28:47;;;;;;;9.00;7.43;;;7.60;99.90;;;;;;5107044;28;20050;-79
2022/11/17 05:31:14;;;;;;;9.25;7.88;;;7.60;99.90;;;;;;5107740;28;20101;-79
2022/11/17 05:33:39;;;;;;;8.85;7.88;;;9.30;99.90;;;;;;5087076;28;20062;-79
2022/11/17 05:36:06;;;;;;;9.38;8.15;;;7.40;99.90;;;;;;5094610;28;20048;-79
2022/11/17 05:38:31;;;;;;;9.32;7.78;;;7.40;99.90;;;;;;5090094;28;20054;-79
2022/11/17 05:40:57;;;;;;;10.98;8.00;;;7.50;99.90;;;;;;5106270;28;20516;-79
2022/11/17 05:43:23;;;;;;;9.13;8.10;;;7.30;99.90;;;;;;5107858;28;20461;-78
2022/11/17 05:45:48;;;;;;;9.77;8.77;;;7.30;99.90;;;;;;5107039;28;20109;-80
2022/11/17 05:48:14;;;;;;;8.82;7.93;;;7.30;99.90;;;;;;5106635;28;20088;-80
2022/11/17 05:50:40;;;;;;;10.40;8.00;;;7.30;99.90;;;;;;5108171;28;20043;-80
2022/11/17 05:53:05;;;;;;;9.73;7.28;;;7.20;99.90;;;;;;5106906;28;20410;-80
2022/11/17 05:55:31;;;;;;;9.18;7.70;;;7.20;99.90;;;;;;5108013;28;20119;-80
2022/11/17 05:58:03;;;;;;;8.90;7.43;;;8.10;99.90;;;;;;5104457;28;20093;-80
2022/11/17 06:00:30;;;;;;;10.20;7.70;;;7.20;99.90;;;;;;5106681;28;20059;-79
2022/11/17 06:03:04;;;;;;;10.25;7.60;;;7.20;99.90;;;;;;5104967;28;20155;-80
2022/11/17 06:05:30;;;;;;;8.98;7.13;;;7.10;99.90;;;;;;5088131;28;20054;-80
2022/11/17 06:07:58;;;;;;;9.90;7.57;;;7.10;99.90;;;;;;5106153;28;20044;-80
2022/11/17 06:10:24;;;;;;;9.75;7.63;;;7.00;99.90;;;;;;5106582;28;20038;-80
2022/11/17 06:12:50;;;;;;;10.48;8.23;;;7.10;99.90;;;;;;5106145;28;20036;-81
2022/11/17 06:15:16;;;;;;;8.80;7.47;;;7.10;99.90;;;;;;5106739;28;20497;-80
2022/11/17 06:17:56;;;;;;;8.35;7.00;;;7.00;99.90;;;;;;5106785;28;20043;-80
2022/11/17 06:20:28;;;;;;;8.70;7.65;;;7.80;99.90;;;;;;5106597;28;20047;-81
2022/11/17 06:22:56;;;;;;;9.82;7.65;;;7.10;99.90;;;;;;5106632;28;20405;-81
2022/11/17 06:25:22;;;;;;;8.95;7.50;;;7.00;99.90;;;;;;5107175;28;20131;-80
2022/11/17 06:27:52;;;;;;;7.80;6.47;;;6.90;99.90;;;;;;5107720;28;20047;-80
2022/11/17 06:30:18;;;;;;;10.18;7.30;;;6.90;99.90;;;;;;5106271;28;20032;-79
2022/11/17 06:32:44;;;;;;;8.75;7.15;;;7.20;99.90;;;;;;5088600;28;20077;-81
2022/11/17 06:35:15;;;;;;;7.82;7.03;;;7.10;99.90;;;;;;5107655;28;20789;-81
2022/11/17 06:37:41;;;;;;;7.93;6.82;;;7.10;99.90;;;;;;5106887;28;20092;-81
2022/11/17 06:40:07;;;;;;;8.88;7.53;;;7.00;99.90;;;;;;5093432;28;20083;-80
2022/11/17 06:45:17;;;;;;;7.88;7.00;;;7.00;99.90;;;;;;5106428;28;20043;-81
2022/11/17 06:47:42;;;;;;;8.93;7.50;;;6.90;99.90;;;;;;5107401;28;20051;-81
2022/11/17 06:50:09;;;;;;;8.32;7.40;;;7.40;99.90;;;;;;5109640;28;20055;-81
2022/11/17 06:52:34;;;;;;;7.65;6.72;;;7.00;99.90;;;;;;5110249;28;20044;-82
2022/11/17 06:55:00;;;;;;;7.85;6.93;;;7.10;99.90;;;;;;5109802;28;20046;-81
2022/11/17 06:57:25;;;;;;;8.45;7.45;;;7.00;99.90;;;;;;5109751;28;20654;-81
2022/11/17 06:59:51;;;;;;;7.38;6.60;;;6.90;99.90;;;;;;5111105;28;20566;-81
2022/11/17 07:02:17;;;;;;;7.03;6.25;;;7.10;99.90;;;;;;5109479;28;20059;-81
2022/11/17 07:04:43;;;;;;;8.57;6.68;;;7.10;99.90;;;;;;5093011;28;20040;-80
2022/11/17 07:07:08;;;;;;;7.85;7.00;;;7.00;99.90;;;;;;5126771;27;20089;-80
2022/11/17 07:09:34;;;;;;;7.22;6.40;;;7.00;99.90;;;;;;5111569;28;20066;-80
2022/11/17 07:11:59;;;;;;;8.93;7.10;;;7.00;99.90;;;;;;5108605;28;20039;-80
2022/11/17 07:14:25;;;;;;;8.02;6.93;;;7.00;99.90;;;;;;5111151;28;20056;-80
2022/11/17 07:16:50;;;;;;;8.38;7.13;;;7.10;99.90;;;;;;5110395;28;20123;-81
2022/11/17 07:19:16;;;;;;;6.82;6.13;;;7.20;99.90;;;;;;5111130;28;20094;-81
2022/11/17 07:21:42;;;;;;;8.00;6.38;;;7.10;99.90;;;;;;5111248;28;20501;-81
2022/11/17 07:24:07;;;;;;;7.88;6.50;;;7.10;99.90;;;;;;5126515;27;20044;-81
2022/11/17 07:26:35;;;;;;;7.70;6.13;;;7.10;99.90;;;;;;5109904;28;20072;-80
2022/11/17 07:29:01;;;;;;;7.15;6.45;;;7.20;99.90;;;;;;5111119;28;20044;-81
2022/11/17 07:31:26;;;;;;;6.90;6.13;;;8.30;99.90;;;;;;5125702;27;20065;-81
2022/11/17 07:33:52;;;;;;;6.68;5.97;;;7.10;99.90;;;;;;5109644;28;20496;-80
2022/11/17 07:36:18;;;;;;;8.48;6.38;;;7.10;99.90;;;;;;5108490;28;20047;-81
2022/11/17 07:38:44;;;;;;;8.07;5.97;;;7.00;99.90;;;;;;5110862;28;20135;-81
2022/11/17 07:41:12;;;;;;;7.18;6.40;;;7.80;99.90;;;;;;5107857;28;20052;-80
2022/11/17 07:43:38;;;;;;;7.03;6.20;;;7.30;99.90;;;;;;5106354;28;20508;-80
2022/11/17 07:46:05;;;;;;;6.82;6.13;;;7.30;99.90;;;;;;5107664;28;20039;-81
2022/11/17 07:48:31;;;;;;;7.32;6.00;;;7.10;99.90;;;;;;5105583;28;20047;-81
2022/11/17 07:51:01;;;;;;;6.90;6.20;;;7.10;99.90;;;;;;5109136;27;20126;-83
2022/11/17 07:53:27;;;;;;;7.05;6.18;;;7.20;99.90;;;;;;5108893;28;20051;-79
2022/11/17 07:55:53;;;;;;;6.65;5.85;;;7.90;99.90;;;;;;5110000;28;20399;-81
2022/11/17 07:58:19;;;;;;;7.10;6.05;;;7.20;99.90;;;;;;5108316;28;20051;-81
2022/11/17 08:00:44;;;;;;;7.50;6.65;;;7.10;99.90;;;;;;5107746;28;20146;-81
2022/11/17 08:03:10;;;;;;;7.82;6.50;;;7.00;99.90;;;;;;5109090;28;20162;-81
2022/11/17 08:05:38;;;;;;;7.03;6.32;;;7.20;99.90;;;;;;5107277;28;20046;-81
2022/11/17 08:08:06;;;;;;;6.88;5.72;;;7.30;99.90;;;;;;5108765;28;20043;-81
2022/11/17 08:10:33;;;;;;;9.13;7.05;;;7.10;99.90;;;;;;5108423;28;20050;-80
2022/11/17 08:13:02;;;;;;;7.65;6.78;;;7.60;99.90;;;;;;5108408;28;20055;-79
2022/11/17 08:15:28;;;;;;;8.07;7.13;;;7.20;99.90;;;;;;5108933;28;20056;-79
2022/11/17 08:17:55;;;;;;;9.10;7.78;;;7.10;99.90;;;;;;5110316;27;20036;-80
2022/11/17 08:20:22;;;;;;;8.32;6.65;;;6.90;99.90;;;;;;5107855;28;20082;-80
2022/11/17 08:22:51;;;;;;;7.38;6.68;;;6.90;99.90;;;;;;5105498;27;20048;-80
2022/11/17 08:25:22;;;;;;;8.43;6.88;;;7.00;99.90;;;;;;5095123;28;20039;-80
2022/11/17 08:27:50;;;;;;;9.48;7.25;;;7.10;99.90;;;;;;5108234;28;20463;-80
2022/11/17 08:30:17;;;;;;;7.65;6.80;;;7.20;99.90;;;;;;5105374;28;20540;-81
2022/11/17 08:32:48;;;;;;;9.23;7.28;;;7.10;99.90;;;;;;5106574;28;20042;-81
2022/11/17 08:35:14;;;;;;;8.27;7.30;;;7.20;99.90;;;;;;5108209;28;20119;-80
2022/11/17 08:37:40;;;;;;;7.47;6.68;;;7.20;99.90;;;;;;5109573;28;20544;-81
2022/11/17 08:40:06;;;;;;;9.40;7.25;;;7.10;99.90;;;;;;5106966;28;20150;-82
2022/11/17 08:42:32;;;;;;;10.27;7.45;;;7.30;99.90;;;;;;5108549;28;20074;-81
2022/11/17 08:45:00;;;;;;;8.80;6.95;;;7.10;99.90;;;;;;5107053;28;20039;-80
2022/11/17 08:47:26;;;;;;;8.13;6.88;;;7.20;99.90;;;;;;5108544;28;20054;-80
2022/11/17 08:49:51;;;;;;;7.72;6.82;;;7.00;99.90;;;;;;5107603;28;20044;-81
2022/11/17 08:52:18;;;;;;;8.20;6.80;;;7.10;99.90;;;;;;5107634;28;20044;-80
2022/11/17 08:54:44;;;;;;;9.20;7.38;;;7.10;99.90;;;;;;5105901;28;20040;-80
2022/11/17 08:57:10;;;;;;;8.95;7.15;;;7.00;99.90;;;;;;5102929;28;20405;-80
2022/11/17 08:59:35;;;;;;;8.13;7.25;;;7.10;99.90;;;;;;5091119;28;20116;-80
2022/11/17 09:02:01;;;;;;;7.88;7.07;;;7.10;99.90;;;;;;5108211;28;20518;-80
2022/11/17 09:04:26;;;;;;;7.80;7.00;;;7.10;99.90;;;;;;5105566;28;20406;-80
2022/11/17 09:06:52;;;;;;;7.70;6.65;;;7.10;99.90;;;;;;5107773;28;20062;-80
2022/11/17 09:09:18;;;;;;;7.88;7.03;;;7.30;99.90;;;;;;5103023;28;20050;-80
2022/11/17 09:11:44;;;;;;;7.80;6.38;;;7.20;99.90;;;;;;5107678;28;20051;-80
2022/11/17 09:14:10;;;;;;;8.38;7.30;;;7.10;99.90;;;;;;5107788;28;20154;-80
2022/11/17 09:16:35;;;;;;;7.40;6.55;;;7.20;99.90;;;;;;5124551;27;20159;-80
2022/11/17 09:19:01;;;;;;;8.20;7.07;;;7.20;99.90;;;;;;5125440;27;20079;-81
2022/11/17 09:21:28;;;;;;;8.35;7.10;;;7.10;99.90;;;;;;5107626;28;20141;-80
2022/11/17 09:23:54;;;;;;;7.72;6.53;;;7.20;99.90;;;;;;5107521;28;20048;-80
2022/11/17 09:26:20;;;;;;;7.72;6.90;;;7.40;99.90;;;;;;5107848;28;20065;-80
2022/11/17 09:28:46;;;;;;;7.88;6.78;;;7.10;99.90;;;;;;5079768;28;20044;-80
2022/11/17 09:31:17;;;;;;;7.18;6.47;;;7.20;99.90;;;;;;5105102;28;20046;-79
2022/11/17 09:33:43;;;;;;;12.35;6.32;;;7.30;99.90;;;;;;5106323;28;20043;-79
2022/11/17 09:36:10;;;;;;;6.97;6.15;;;7.20;99.90;;;;;;5093694;28;20509;-79
2022/11/17 09:38:36;;;;;;;6.85;6.15;;;7.30;99.90;;;;;;5103948;28;20051;-78
2022/11/17 09:41:10;;;;;;;7.53;6.15;;;;;;;;;;5105186;28;20122;-78
2022/11/17 09:43:40;;;;;;;6.90;6.20;;;7.20;99.90;;;;;;5105108;28;20378;-78
2022/11/17 09:46:15;;;;;;;7.57;6.22;;;7.30;99.90;;;;;;5100548;28;20055;-77
2022/11/17 09:48:56;;;;;;;8.43;6.18;;;7.10;99.90;;;;;;5107609;28;20389;-78
2022/11/17 09:51:25;;;;;;;6.57;5.90;;;7.30;99.90;;;;;;5107333;28;20043;-78
2022/11/17 09:54:01;;;;;;;6.90;6.05;;;7.40;99.90;;;;;;5108149;28;20184;-78
2022/11/17 09:56:27;;;;;;;9.70;6.75;;;7.30;99.90;;;;;;5106039;28;20036;-77
2022/11/17 09:59:03;;;;;;;8.10;6.28;;;7.40;99.90;;;;;;5107448;28;20066;-77
2022/11/17 10:01:29;;;;;;;8.02;7.10;;;7.70;99.90;;;;;;5107317;28;20100;-78
2022/11/17 10:03:58;;;;;;;6.97;6.28;;;;;;;;;;5108217;28;20062;-77
2022/11/17 10:06:27;;;;;;;8.52;6.97;;;;;;;;;;5106932;28;20048;-78
2022/11/17 10:08:57;;;;;;;7.78;6.60;;;;;;;;;;5108065;28;20062;-77
2022/11/17 10:11:33;;;;;;;8.18;5.93;;;;;;;;;;5105746;28;20046;-78
2022/11/17 10:14:03;;;;;;;6.82;6.03;;;;;;;;;;5107867;28;20155;-78
2022/11/17 10:16:29;;;;;;;6.97;6.28;;;;;;;;;;5078454;28;20483;-78
2022/11/17 10:18:56;;;;;;;6.57;5.75;;;;;;;;;;5087673;28;20044;-78
2022/11/17 10:21:22;;;;;;;6.63;5.25;;;;;;;;;;5086260;28;20520;-78
2022/11/17 10:23:56;;;;;;;7.60;5.93;;;;;;;;;;5089032;28;20052;-78
2022/11/17 10:26:22;;;;;;;6.57;5.63;;;;;;;;;;5091501;28;20489;-78
2022/11/17 10:29:03;;;;;;;7.47;5.88;;;;;;;;;;5073502;28;20084;-78
2022/11/17 10:31:38;;;;;;;6.47;5.53;;;;;;;;;;5099881;28;20055;-78
2022/11/17 10:34:04;;;;;;;6.40;5.80;;;;;;;;;;5110394;28;20039;-78
2022/11/17 10:36:31;;;;;;;6.55;5.90;;;;;;;;;;5111911;28;20049;-78
2022/11/17 10:38:58;;;;;;;6.35;5.75;;;;;;;;;;5093786;28;20054;-78
2022/11/17 10:41:41;;;;;;;6.60;5.90;;;;;;;;;;5111675;28;20055;-78
2022/11/17 10:44:36;;;;;;;6.43;5.82;;;;;;;;;;5111908;28;20051;-78
2022/11/17 10:47:03;;;;;;;6.82;5.80;;;;;;;;;;5101740;28;20201;-78
2022/11/17 10:49:34;;;;;;;6.80;5.88;;;;;;;;;;5110968;28;20472;-77
2022/11/17 10:52:04;;;;;;;7.65;5.82;;;;;;;;;;5111516;28;20047;-78
2022/11/17 10:54:30;;;;;;;6.15;5.55;;;;;;;;;;5110151;28;20046;-78
2022/11/17 10:56:58;;;;;;;6.18;5.57;;;;;;;;;;5111280;28;20516;-78
2022/11/17 10:59:28;;;;;;;6.13;5.03;;;;;;;;;;5111056;28;20078;-78
2022/11/17 11:01:54;;;;;;;6.90;5.75;;;;;;;;;;5108827;28;20148;-78
2022/11/17 11:04:26;;;;;;;5.95;5.35;;;;;;;;;;5111267;28;20087;-78
2022/11/17 11:07:05;;;;;;;6.63;5.95;;;;;;;;;;5111464;28;20048;-78
2022/11/17 11:09:32;;;;;;;5.95;5.35;;;;;;;;;;5092688;28;20058;-78
2022/11/17 11:12:00;;;;;;;4.90;4.50;;;;;;;;;;5110652;28;20048;-78
2022/11/17 11:14:41;;;;;;;5.07;4.57;;;;;;;;;;5109659;28;20055;-78
2022/11/17 11:17:11;;;;;;;5.15;4.65;;;;;;;;;;5110750;28;20032;-78
2022/11/17 11:19:38;;;;;;;4.97;4.47;;;;;;;;;;5110210;28;20501;-78
2022/11/17 11:22:23;;;;;;;5.00;4.53;;;;;;;;;;5108881;28;20124;-78
2022/11/17 11:24:48;;;;;;;4.70;4.25;;;;;;;;;;5109497;28;20050;-78
2022/11/17 11:27:34;;;;;;;4.25;3.85;;;;;;;;;;5109231;28;20055;-78
2022/11/17 11:30:11;;;;;;;4.95;4.40;;;;;;;;;;5109812;28;20465;-78
2022/11/17 11:33:00;;;;;;;5.07;4.57;;;;;;;;;;5110883;28;20649;-79
2022/11/17 11:35:45;;;;;;;5.38;4.80;;;;;;;;;;5103814;28;20112;-78
2022/11/17 11:38:34;;;;;;;5.03;4.57;;;;;;;;;;5110475;27;20048;-79
2022/11/17 11:41:00;;;;;;;5.28;4.78;;;;;;;;;;5110237;28;20047;-78
2022/11/17 11:43:26;;;;;;;5.68;4.70;;;;;;;;;;5106431;28;20116;-78
2022/11/17 11:46:05;;;;;;;6.03;5.30;;;;;;;;;;5105468;28;20040;-78
2022/11/17 11:48:35;;;;;;;5.30;4.80;;;;;;;;;;5108642;28;20051;-78
2022/11/17 11:51:20;;;;;;;5.97;4.65;;;;;;;;;;5129061;27;20051;-78
2022/11/17 11:53:52;;;;;;;5.63;4.97;;;;;;;;;;5095937;28;20498;-78
2022/11/17 11:56:22;;;;;;;6.85;5.00;;;;;;;;;;5106748;28;20527;-78
2022/11/17 11:58:53;;;;;;;5.38;4.88;;;;;;;;;;5110921;28;20055;-78
2022/11/17 12:01:21;;;;;;;5.63;5.00;;;;;;;;;;5109926;28;20056;-78
2022/11/17 12:03:49;;;;;;;5.15;4.65;;;;;;;;;;5107690;28;20115;-78
2022/11/17 12:06:41;;;;;;;5.65;5.15;;;;;;;;;;5109985;28;20497;-77
2022/11/17 12:09:10;;;;;;;5.57;5.00;;;;;;;;;;5107403;28;20043;-78
2022/11/17 12:14:23;;;;;;;6.28;5.07;;;;;;;;;;5106272;28;20446;-78
2022/11/17 12:16:49;;;;;;;5.70;5.10;;;;;;;;;;5089633;28;20139;-78
2022/11/17 12:19:34;;;;;;;7.03;5.43;;;;;;;;;;5110389;28;20081;-78
2022/11/17 12:22:00;;;;;;;6.80;5.45;;;;;;;;;;5106386;28;20090;-79
2022/11/17 12:24:32;;;;;;;7.13;6.05;;;;;;;;;;5110415;28;20083;-79
2022/11/17 12:27:17;;;;;;;7.45;5.90;;;;;;;;;;5108965;28;20048;-77
2022/11/17 12:29:46;;;;;;;8.98;5.90;;;;;;;;;;5108599;28;20553;-80
2022/11/17 12:32:32;;;;;;;7.68;5.88;;;;;;;;;;5106766;28;20054;-80
2022/11/17 12:35:23;;;;;;;6.88;5.78;;;;;;;;;;5107580;28;20460;-80
2022/11/17 12:37:48;;;;;;;6.43;5.80;;;;;;;;;;5108279;28;20055;-80
2022/11/17 12:40:34;;;;;;;7.97;6.13;;;;;;;;;;5090889;28;20039;-80
2022/11/17 12:43:18;;;;;;;7.47;6.00;;;;;;;;;;5108936;27;20055;-79
2022/11/17 12:46:03;;;;;;;6.93;5.93;;;;;;;;;;5107999;28;20048;-79
2022/11/17 12:48:33;;;;;;;8.40;6.13;;;;;;;;;;5090596;28;20051;-79
2022/11/17 12:51:05;;;;;;;8.38;5.90;;;;;;;;;;5106129;28;20180;-80
2022/11/17 12:53:51;;;;;;;7.20;5.40;;;;;;;;;;5091232;28;20126;-81
2022/11/17 12:56:36;;;;;;;7.78;5.00;;;;;;;;;;5106589;28;20036;-80
2022/11/17 12:59:14;;;;;;;6.35;5.38;;;;;;;;;;5103269;27;20042;-80
2022/11/17 13:01:48;;;;;;;6.63;5.60;;;;;;;;;;5105933;28;20078;-80
2022/11/17 13:04:16;;;;;;;6.70;4.90;;;;;;;;;;5107979;28;20086;-80
2022/11/17 13:07:01;;;;;;;7.78;5.00;;;;;;;;;;5106924;27;20432;-79
2022/11/17 13:09:32;;;;;;;7.13;4.80;;;;;;;;;;5089355;28;20298;-79
2022/11/17 13:11:59;;;;;;;6.28;4.45;;;;;;;;;;5106490;28;20367;-79
2022/11/17 13:14:25;;;;;;;5.07;4.18;;;;;;;;;;5106088;27;20442;-79
2022/11/17 13:16:51;;;;;;;6.93;4.00;;;;;;;;;;5107423;28;20450;-79
2022/11/17 13:19:34;;;;;;;4.22;3.72;;;;;;;;;;5089119;28;20044;-79
2022/11/17 13:22:04;;;;;;;5.97;4.07;;;;;;;;;;5088146;28;20067;-78
2022/11/17 13:24:49;;;;;;;8.88;4.45;;;;;;;;;;5098153;28;20084;-80
2022/11/17 13:30:22;;;;;;;8.02;5.85;;;;;;;;;;5076698;28;20048;-80
2022/11/17 13:33:34;;;;;;;;;;;;;;;;;;;;;
2022/11/17 13:36:37;;;;;;;6.50;4.22;;;;;;;;;;5088275;28;20417;-81
2022/11/17 13:39:16;;;;;;;7.83;4.20;;;;;;;;;;5088726;28;20067;-80
2022/11/17 13:51:39;;;;;;;9.68;6.22;;;;;;;;;;5030012;28;20476;-79
2022/11/17 13:54:13;;;;;;;10.43;7.00;;;;;;;;;;5104889;28;20560;-79
2022/11/17 13:56:40;;;;;;;10.27;6.95;;;;;;;;;;5104722;28;20489;-78
2022/11/17 13:59:27;;;;;;;10.77;7.22;;;;;;;;;;5104266;27;20140;-79
2022/11/17 14:02:11;;;;;;;7.05;6.35;;;;;;;;;;5108259;27;20042;-79
2022/11/17 14:04:37;;;;;;;8.02;7.15;;;;;;;;;;5102452;28;20126;-79
2022/11/17 14:07:03;;;;;;;9.70;7.57;;;;;;;;;;5105293;28;20039;-80
2022/11/17 14:09:31;;;;;;;9.15;8.07;;;;;;;;;;5104551;28;20052;-78
2022/11/17 14:11:57;;;;;;;10.57;7.65;;;9.70;99.90;;;;;;5104377;28;20039;-78
2022/11/17 14:14:43;;;;;;;8.63;7.35;;;9.60;99.90;;;;;;5106203;28;20434;-79
2022/11/17 14:17:28;;;;;;;8.45;7.55;;;9.60;99.90;;;;;;5104290;28;20047;-79
2022/11/17 14:19:53;;;;;;;8.52;7.53;;;9.50;99.90;;;;;;5106386;28;20416;-78
2022/11/17 14:22:23;;;;;;;8.63;7.80;;;9.50;99.90;;;;;;5106658;28;20050;-78
2022/11/17 14:24:49;;;;;;;11.65;8.55;;;9.50;99.90;;;;;;5106200;28;20040;-79
2022/11/17 14:27:38;;;;;;;11.95;8.95;;;9.50;99.90;;;;;;5105931;28;20048;-79
2022/11/17 14:30:07;;;;;;;12.68;9.38;;;;;;;;;;5102992;28;20039;-79
2022/11/17 14:32:33;;;;;;;14.40;10.68;;;9.40;99.90;;;;;;5101640;28;20194;-78
2022/11/17 14:35:02;;;;;;;12.63;10.02;;;;;;;;;;5106285;28;20056;-80
2022/11/17 14:37:31;;;;;;;13.60;10.85;;;;;;;;;;5106129;28;20505;-80
2022/11/17 14:40:02;;;;;;;12.07;9.80;;;;;;;;;;5106097;28;20055;-80
2022/11/17 14:42:30;;;;;;;11.40;9.38;;;9.40;99.90;;;;;;5122829;28;20062;-80